sensor_id;sensor_type;location;lat;lon;timestamp;temperature;humidity
15107;DHT22;7654;45.308;-75.096;2022-12-16T00:02:15;2.20;99.90
15107;DHT22;7654;45.308;-75.096;2022-12-16T00:04:46;2.20;99.90
15107;DHT22;7654;45.308;-75.096;2022-12-16T00:07:18;2.20;99.90
15107;DHT22;7654;45.308;-75.096;2022-12-16T00:09:48;2.20;99.90
15107;DHT22;7654;45.308;-75.096;2022-12-16T00:12:19;2.20;99.90
15107;DHT22;7654;45.308;-75.096;2022-12-16T00:14:49;2.20;99.90
15107;DHT22;7654;45.308;-75.096;2022-12-16T00:17:22;2.20;99.90
15107;DHT22;7654;45.308;-75.096;2022-12-16T00:19:55;2.10;99.90
15107;DHT22;7654;45.308;-75.096;2022-12-16T00:22:27;2.10;99.90
15107;DHT22;7654;45.308;-75.096;2022-12-16T00:24:58;2.00;99.90
15107;DHT22;7654;45.308;-75.096;2022-12-16T00:27:29;2.00;99.90
15107;DHT22;7654;45.308;-75.096;2022-12-16T00:29:59;1.90;99.90
15107;DHT22;7654;45.308;-75.096;2022-12-16T00:32:30;1.90;99.90
15107;DHT22;7654;45.308;-75.096;2022-12-16T00:35:06;2.00;99.90
15107;DHT22;7654;45.308;-75.096;2022-12-16T00:37:37;2.00;99.90
15107;DHT22;7654;45.308;-75.096;2022-12-16T00:40:08;2.00;99.90
15107;DHT22;7654;45.308;-75.096;2022-12-16T00:42:38;2.00;99.90
15107;DHT22;7654;45.308;-75.096;2022-12-16T00:45:09;1.90;99.90
15107;DHT22;7654;45.308;-75.096;2022-12-16T00:47:39;1.90;99.90
15107;DHT22;7654;45.308;-75.096;2022-12-16T00:50:12;1.80;99.90
15107;DHT22;7654;45.308;-75.096;2022-12-16T00:52:42;1.80;99.90
15107;DHT22;7654;45.308;-75.096;2022-12-16T00:55:13;1.80;99.90
15107;DHT22;7654;45.308;-75.096;2022-12-16T00:57:43;1.80;99.90
15107;DHT22;7654;45.308;-75.096;2022-12-16T01:00:15;1.70;99.90
15107;DHT22;7654;45.308;-75.096;2022-12-16T01:02:47;1.70;99.90
15107;DHT22;7654;45.308;-75.096;2022-12-16T01:05:37;1.60;99.90
15107;DHT22;7654;45.308;-75.096;2022-12-16T01:08:07;1.70;99.90
15107;DHT22;7654;45.308;-75.096;2022-12-16T01:10:39;1.60;99.90
15107;DHT22;7654;45.308;-75.096;2022-12-16T01:13:09;1.60;99.90
15107;DHT22;7654;45.308;-75.096;2022-12-16T01:15:39;1.60;99.90
15107;DHT22;7654;45.308;-75.096;2022-12-16T01:18:09;1.60;99.90
15107;DHT22;7654;45.308;-75.096;2022-12-16T01:20:41;1.60;99.90
15107;DHT22;7654;45.308;-75.096;2022-12-16T01:23:11;1.60;99.90
15107;DHT22;7654;45.308;-75.096;2022-12-16T01:25:42;1.60;99.90
15107;DHT22;7654;45.308;-75.096;2022-12-16T01:28:12;1.60;99.90
15107;DHT22;7654;45.308;-75.096;2022-12-16T01:30:42;1.60;99.90
15107;DHT22;7654;45.308;-75.096;2022-12-16T01:33:12;1.60;99.90
15107;DHT22;7654;45.308;-75.096;2022-12-16T01:35:44;1.60;99.90
15107;DHT22;7654;45.308;-75.096;2022-12-16T01:38:22;1.50;99.90
15107;DHT22;7654;45.308;-75.096;2022-12-16T01:40:53;1.50;99.90
15107;DHT22;7654;45.308;-75.096;2022-12-16T01:43:25;1.40;99.90
15107;DHT22;7654;45.308;-75.096;2022-12-16T01:45:59;1.30;99.90
15107;DHT22;7654;45.308;-75.096;2022-12-16T01:48:38;1.30;99.90
15107;DHT22;7654;45.308;-75.096;2022-12-16T01:51:15;1.20;99.90
15107;DHT22;7654;45.308;-75.096;2022-12-16T01:53:49;1.20;99.90
15107;DHT22;7654;45.308;-75.096;2022-12-16T01:56:22;1.10;99.90
15107;DHT22;7654;45.308;-75.096;2022-12-16T01:58:55;1.10;99.90
15107;DHT22;7654;45.308;-75.096;2022-12-16T02:01:26;1.10;99.90
15107;DHT22;7654;45.308;-75.096;2022-12-16T02:03:58;1.20;99.90
15107;DHT22;7654;45.308;-75.096;2022-12-16T02:06:32;1.20;99.90
15107;DHT22;7654;45.308;-75.096;2022-12-16T02:09:05;1.10;99.90
15107;DHT22;7654;45.308;-75.096;2022-12-16T02:15:02;1.10;99.90
15107;DHT22;7654;45.308;-75.096;2022-12-16T02:17:37;1.00;99.90
15107;DHT22;7654;45.308;-75.096;2022-12-16T02:20:37;1.00;99.90
15107;DHT22;7654;45.308;-75.096;2022-12-16T02:29:37;1.00;99.90
15107;DHT22;7654;45.308;-75.096;2022-12-16T02:32:20;1.00;99.90
15107;DHT22;7654;45.308;-75.096;2022-12-16T02:34:58;1.10;99.90
15107;DHT22;7654;45.308;-75.096;2022-12-16T02:37:34;1.10;99.90
15107;DHT22;7654;45.308;-75.096;2022-12-16T02:40:13;1.10;99.90
15107;DHT22;7654;45.308;-75.096;2022-12-16T02:42:48;1.10;99.90
15107;DHT22;7654;45.308;-75.096;2022-12-16T02:45:24;1.20;99.90
15107;DHT22;7654;45.308;-75.096;2022-12-16T02:47:57;1.20;99.90
15107;DHT22;7654;45.308;-75.096;2022-12-16T02:50:32;1.10;99.90
15107;DHT22;7654;45.308;-75.096;2022-12-16T02:53:04;1.20;99.90
15107;DHT22;7654;45.308;-75.096;2022-12-16T02:55:43;1.20;99.90
15107;DHT22;7654;45.308;-75.096;2022-12-16T02:58:21;1.20;99.90
15107;DHT22;7654;45.308;-75.096;2022-12-16T03:01:01;1.20;99.90
15107;DHT22;7654;45.308;-75.096;2022-12-16T03:03:41;1.20;99.90
15107;DHT22;7654;45.308;-75.096;2022-12-16T03:06:16;1.20;99.90
15107;DHT22;7654;45.308;-75.096;2022-12-16T03:08:50;1.20;99.90
15107;DHT22;7654;45.308;-75.096;2022-12-16T03:11:23;1.20;99.90
15107;DHT22;7654;45.308;-75.096;2022-12-16T03:13:55;1.20;99.90
15107;DHT22;7654;45.308;-75.096;2022-12-16T03:16:28;1.20;99.90
15107;DHT22;7654;45.308;-75.096;2022-12-16T03:19:03;1.20;99.90
15107;DHT22;7654;45.308;-75.096;2022-12-16T03:21:38;1.30;99.90
15107;DHT22;7654;45.308;-75.096;2022-12-16T03:24:11;1.30;99.90
15107;DHT22;7654;45.308;-75.096;2022-12-16T03:26:46;1.30;99.90
15107;DHT22;7654;45.308;-75.096;2022-12-16T03:29:30;1.30;99.90
15107;DHT22;7654;45.308;-75.096;2022-12-16T03:32:06;1.30;99.90
15107;DHT22;7654;45.308;-75.096;2022-12-16T03:34:43;1.30;99.90
15107;DHT22;7654;45.308;-75.096;2022-12-16T03:37:15;1.40;99.90
15107;DHT22;7654;45.308;-75.096;2022-12-16T03:39:47;1.40;99.90
15107;DHT22;7654;45.308;-75.096;2022-12-16T03:42:18;1.30;99.90
15107;DHT22;7654;45.308;-75.096;2022-12-16T03:44:49;1.30;99.90
15107;DHT22;7654;45.308;-75.096;2022-12-16T03:47:20;1.30;99.90
15107;DHT22;7654;45.308;-75.096;2022-12-16T03:49:52;1.30;99.90
15107;DHT22;7654;45.308;-75.096;2022-12-16T03:52:22;1.30;99.90
15107;DHT22;7654;45.308;-75.096;2022-12-16T03:54:53;1.30;99.90
15107;DHT22;7654;45.308;-75.096;2022-12-16T03:57:23;1.40;99.90
15107;DHT22;7654;45.308;-75.096;2022-12-16T03:59:53;1.40;99.90
15107;DHT22;7654;45.308;-75.096;2022-12-16T04:02:23;1.40;99.90
15107;DHT22;7654;45.308;-75.096;2022-12-16T04:04:55;1.40;99.90
15107;DHT22;7654;45.308;-75.096;2022-12-16T04:07:25;1.40;99.90
15107;DHT22;7654;45.308;-75.096;2022-12-16T04:09:56;1.40;99.90
15107;DHT22;7654;45.308;-75.096;2022-12-16T04:12:27;1.40;99.90
15107;DHT22;7654;45.308;-75.096;2022-12-16T04:15:14;1.40;99.90
15107;DHT22;7654;45.308;-75.096;2022-12-16T04:18:00;1.40;99.90
15107;DHT22;7654;45.308;-75.096;2022-12-16T04:20:52;1.50;99.90
15107;DHT22;7654;45.308;-75.096;2022-12-16T04:23:46;1.50;99.90
15107;DHT22;7654;45.308;-75.096;2022-12-16T04:26:34;1.50;99.90
15107;DHT22;7654;45.308;-75.096;2022-12-16T04:29:24;1.40;99.90
15107;DHT22;7654;45.308;-75.096;2022-12-16T04:31:55;1.40;99.90
15107;DHT22;7654;45.308;-75.096;2022-12-16T04:34:26;1.40;99.90
15107;DHT22;7654;45.308;-75.096;2022-12-16T04:36:59;1.40;99.90
15107;DHT22;7654;45.308;-75.096;2022-12-16T04:39:46;1.40;99.90
15107;DHT22;7654;45.308;-75.096;2022-12-16T04:42:33;1.50;99.90
15107;DHT22;7654;45.308;-75.096;2022-12-16T04:45:21;1.50;99.90
15107;DHT22;7654;45.308;-75.096;2022-12-16T04:48:08;1.40;99.90
15107;DHT22;7654;45.308;-75.096;2022-12-16T04:50:56;1.50;99.90
15107;DHT22;7654;45.308;-75.096;2022-12-16T04:53:44;1.50;99.90
15107;DHT22;7654;45.308;-75.096;2022-12-16T04:56:31;1.40;99.90
15107;DHT22;7654;45.308;-75.096;2022-12-16T04:59:18;1.40;99.90
15107;DHT22;7654;45.308;-75.096;2022-12-16T05:02:05;1.40;99.90
15107;DHT22;7654;45.308;-75.096;2022-12-16T05:04:52;1.30;99.90
15107;DHT22;7654;45.308;-75.096;2022-12-16T05:07:39;1.30;99.90
15107;DHT22;7654;45.308;-75.096;2022-12-16T05:10:28;1.30;99.90
15107;DHT22;7654;45.308;-75.096;2022-12-16T05:13:15;1.30;99.90
15107;DHT22;7654;45.308;-75.096;2022-12-16T05:16:03;1.30;99.90
15107;DHT22;7654;45.308;-75.096;2022-12-16T05:18:55;1.30;99.90
15107;DHT22;7654;45.308;-75.096;2022-12-16T05:21:43;1.30;99.90
15107;DHT22;7654;45.308;-75.096;2022-12-16T05:24:30;1.30;99.90
15107;DHT22;7654;45.308;-75.096;2022-12-16T05:27:21;1.30;99.90
15107;DHT22;7654;45.308;-75.096;2022-12-16T05:30:23;1.30;99.90
15107;DHT22;7654;45.308;-75.096;2022-12-16T05:33:10;1.30;99.90
15107;DHT22;7654;45.308;-75.096;2022-12-16T05:35:57;1.20;99.90
15107;DHT22;7654;45.308;-75.096;2022-12-16T05:38:40;1.40;99.90
15107;DHT22;7654;45.308;-75.096;2022-12-16T05:41:29;1.40;99.90
15107;DHT22;7654;45.308;-75.096;2022-12-16T05:44:17;1.40;99.90
15107;DHT22;7654;45.308;-75.096;2022-12-16T05:47:05;1.50;99.90
15107;DHT22;7654;45.308;-75.096;2022-12-16T05:49:52;1.50;99.90
15107;DHT22;7654;45.308;-75.096;2022-12-16T05:52:39;1.50;99.90
15107;DHT22;7654;45.308;-75.096;2022-12-16T05:55:26;1.50;99.90
15107;DHT22;7654;45.308;-75.096;2022-12-16T05:58:13;1.50;99.90
15107;DHT22;7654;45.308;-75.096;2022-12-16T06:01:13;1.40;99.90
15107;DHT22;7654;45.308;-75.096;2022-12-16T06:04:00;1.40;99.90
15107;DHT22;7654;45.308;-75.096;2022-12-16T06:06:48;1.30;99.90
15107;DHT22;7654;45.308;-75.096;2022-12-16T06:09:34;1.20;99.90
15107;DHT22;7654;45.308;-75.096;2022-12-16T06:12:23;1.10;99.90
15107;DHT22;7654;45.308;-75.096;2022-12-16T06:15:11;1.10;99.90
15107;DHT22;7654;45.308;-75.096;2022-12-16T06:17:59;1.00;99.90
15107;DHT22;7654;45.308;-75.096;2022-12-16T06:20:46;0.90;99.90
15107;DHT22;7654;45.308;-75.096;2022-12-16T06:23:33;0.90;99.90
15107;DHT22;7654;45.308;-75.096;2022-12-16T06:26:20;0.80;99.90
15107;DHT22;7654;45.308;-75.096;2022-12-16T06:29:08;0.80;99.90
15107;DHT22;7654;45.308;-75.096;2022-12-16T06:31:55;0.70;99.90
15107;DHT22;7654;45.308;-75.096;2022-12-16T06:34:43;0.70;99.90
15107;DHT22;7654;45.308;-75.096;2022-12-16T06:37:30;0.70;99.90
15107;DHT22;7654;45.308;-75.096;2022-12-16T06:40:17;0.70;99.90
15107;DHT22;7654;45.308;-75.096;2022-12-16T06:43:04;0.70;99.90
15107;DHT22;7654;45.308;-75.096;2022-12-16T06:45:52;0.70;99.90
15107;DHT22;7654;45.308;-75.096;2022-12-16T06:48:39;0.70;99.90
15107;DHT22;7654;45.308;-75.096;2022-12-16T06:51:27;0.60;99.90
15107;DHT22;7654;45.308;-75.096;2022-12-16T06:54:14;0.60;99.90
15107;DHT22;7654;45.308;-75.096;2022-12-16T06:57:01;0.60;99.90
15107;DHT22;7654;45.308;-75.096;2022-12-16T06:59:48;0.60;99.90
15107;DHT22;7654;45.308;-75.096;2022-12-16T07:02:35;0.60;99.90
15107;DHT22;7654;45.308;-75.096;2022-12-16T07:05:23;0.60;99.90
15107;DHT22;7654;45.308;-75.096;2022-12-16T07:08:11;0.60;99.90
15107;DHT22;7654;45.308;-75.096;2022-12-16T07:10:58;0.60;99.90
15107;DHT22;7654;45.308;-75.096;2022-12-16T07:13:45;0.60;99.90
15107;DHT22;7654;45.308;-75.096;2022-12-16T07:16:32;0.60;99.90
15107;DHT22;7654;45.308;-75.096;2022-12-16T07:19:19;0.60;99.90
15107;DHT22;7654;45.308;-75.096;2022-12-16T07:22:06;0.60;99.90
15107;DHT22;7654;45.308;-75.096;2022-12-16T07:24:54;0.60;99.90
15107;DHT22;7654;45.308;-75.096;2022-12-16T07:27:45;0.60;99.90
15107;DHT22;7654;45.308;-75.096;2022-12-16T07:30:38;0.60;99.90
15107;DHT22;7654;45.308;-75.096;2022-12-16T07:33:26;0.60;99.90
15107;DHT22;7654;45.308;-75.096;2022-12-16T07:36:13;0.60;99.90
15107;DHT22;7654;45.308;-75.096;2022-12-16T07:39:00;0.60;99.90
15107;DHT22;7654;45.308;-75.096;2022-12-16T07:41:49;0.60;99.90
15107;DHT22;7654;45.308;-75.096;2022-12-16T07:44:36;0.60;99.90
15107;DHT22;7654;45.308;-75.096;2022-12-16T07:47:31;0.60;99.90
15107;DHT22;7654;45.308;-75.096;2022-12-16T07:50:21;0.60;99.90
15107;DHT22;7654;45.308;-75.096;2022-12-16T07:53:11;0.70;99.90
15107;DHT22;7654;45.308;-75.096;2022-12-16T07:55:58;0.60;99.90
15107;DHT22;7654;45.308;-75.096;2022-12-16T07:58:46;0.60;99.90
15107;DHT22;7654;45.308;-75.096;2022-12-16T08:01:32;0.60;99.90
15107;DHT22;7654;45.308;-75.096;2022-12-16T08:04:22;0.70;99.90
15107;DHT22;7654;45.308;-75.096;2022-12-16T08:07:09;0.60;99.90
15107;DHT22;7654;45.308;-75.096;2022-12-16T08:09:56;0.60;99.90
15107;DHT22;7654;45.308;-75.096;2022-12-16T08:12:43;0.60;99.90
15107;DHT22;7654;45.308;-75.096;2022-12-16T08:15:32;0.60;99.90
15107;DHT22;7654;45.308;-75.096;2022-12-16T08:18:34;0.60;99.90
15107;DHT22;7654;45.308;-75.096;2022-12-16T08:21:20;0.60;99.90
15107;DHT22;7654;45.308;-75.096;2022-12-16T08:24:13;0.60;99.90
15107;DHT22;7654;45.308;-75.096;2022-12-16T08:27:00;0.60;99.90
15107;DHT22;7654;45.308;-75.096;2022-12-16T08:29:47;0.60;99.90
15107;DHT22;7654;45.308;-75.096;2022-12-16T08:32:36;0.60;99.90
15107;DHT22;7654;45.308;-75.096;2022-12-16T08:35:29;0.60;99.90
15107;DHT22;7654;45.308;-75.096;2022-12-16T08:38:17;0.60;99.90
15107;DHT22;7654;45.308;-75.096;2022-12-16T08:41:04;0.60;99.90
15107;DHT22;7654;45.308;-75.096;2022-12-16T08:43:51;0.60;99.90
15107;DHT22;7654;45.308;-75.096;2022-12-16T08:46:38;0.60;99.90
15107;DHT22;7654;45.308;-75.096;2022-12-16T08:49:27;0.60;99.90
15107;DHT22;7654;45.308;-75.096;2022-12-16T08:52:14;0.60;99.90
15107;DHT22;7654;45.308;-75.096;2022-12-16T08:55:01;0.60;99.90
15107;DHT22;7654;45.308;-75.096;2022-12-16T08:57:55;0.60;99.90
15107;DHT22;7654;45.308;-75.096;2022-12-16T09:00:42;0.50;99.90
15107;DHT22;7654;45.308;-75.096;2022-12-16T09:03:34;0.50;99.90
15107;DHT22;7654;45.308;-75.096;2022-12-16T09:06:23;0.50;99.90
15107;DHT22;7654;45.308;-75.096;2022-12-16T09:09:10;0.50;99.90
15107;DHT22;7654;45.308;-75.096;2022-12-16T09:11:58;0.50;99.90
15107;DHT22;7654;45.308;-75.096;2022-12-16T09:14:45;0.50;99.90
15107;DHT22;7654;45.308;-75.096;2022-12-16T09:17:32;0.50;99.90
15107;DHT22;7654;45.308;-75.096;2022-12-16T09:20:19;0.50;99.90
15107;DHT22;7654;45.308;-75.096;2022-12-16T09:23:08;0.50;99.90
15107;DHT22;7654;45.308;-75.096;2022-12-16T09:25:55;0.50;99.90
15107;DHT22;7654;45.308;-75.096;2022-12-16T09:28:42;0.50;99.90
15107;DHT22;7654;45.308;-75.096;2022-12-16T09:31:29;0.50;99.90
15107;DHT22;7654;45.308;-75.096;2022-12-16T09:34:16;0.50;99.90
15107;DHT22;7654;45.308;-75.096;2022-12-16T09:37:04;0.50;99.90
15107;DHT22;7654;45.308;-75.096;2022-12-16T09:39:52;0.50;99.90
15107;DHT22;7654;45.308;-75.096;2022-12-16T09:42:47;0.50;99.90
15107;DHT22;7654;45.308;-75.096;2022-12-16T09:45:42;0.50;99.90
15107;DHT22;7654;45.308;-75.096;2022-12-16T09:48:39;0.50;99.90
15107;DHT22;7654;45.308;-75.096;2022-12-16T09:51:28;0.50;99.90
15107;DHT22;7654;45.308;-75.096;2022-12-16T09:54:18;0.50;99.90
15107;DHT22;7654;45.308;-75.096;2022-12-16T09:57:07;0.50;99.90
15107;DHT22;7654;45.308;-75.096;2022-12-16T09:59:58;0.50;99.90
15107;DHT22;7654;45.308;-75.096;2022-12-16T10:02:48;0.50;99.90
15107;DHT22;7654;45.308;-75.096;2022-12-16T10:05:42;0.50;99.90
15107;DHT22;7654;45.308;-75.096;2022-12-16T10:08:43;0.50;99.90
15107;DHT22;7654;45.308;-75.096;2022-12-16T10:11:42;0.40;99.90
15107;DHT22;7654;45.308;-75.096;2022-12-16T10:14:38;0.50;99.90
15107;DHT22;7654;45.308;-75.096;2022-12-16T10:17:30;0.40;99.90
15107;DHT22;7654;45.308;-75.096;2022-12-16T10:20:23;0.40;99.90
15107;DHT22;7654;45.308;-75.096;2022-12-16T10:23:21;0.40;99.90
15107;DHT22;7654;45.308;-75.096;2022-12-16T10:39:15;0.40;99.90
15107;DHT22;7654;45.308;-75.096;2022-12-16T10:42:15;0.50;99.90
15107;DHT22;7654;45.308;-75.096;2022-12-16T10:45:04;0.50;99.90
15107;DHT22;7654;45.308;-75.096;2022-12-16T10:47:56;0.50;99.90
15107;DHT22;7654;45.308;-75.096;2022-12-16T10:50:44;0.50;99.90
15107;DHT22;7654;45.308;-75.096;2022-12-16T10:53:31;0.40;99.90
15107;DHT22;7654;45.308;-75.096;2022-12-16T10:56:30;0.40;99.90
15107;DHT22;7654;45.308;-75.096;2022-12-16T10:59:23;0.40;99.90
15107;DHT22;7654;45.308;-75.096;2022-12-16T11:02:20;0.40;99.90
15107;DHT22;7654;45.308;-75.096;2022-12-16T11:05:33;0.40;99.90
15107;DHT22;7654;45.308;-75.096;2022-12-16T11:08:24;0.40;99.90
15107;DHT22;7654;45.308;-75.096;2022-12-16T11:11:24;0.40;99.90
15107;DHT22;7654;45.308;-75.096;2022-12-16T11:14:17;0.40;99.90
15107;DHT22;7654;45.308;-75.096;2022-12-16T11:17:16;0.40;99.90
15107;DHT22;7654;45.308;-75.096;2022-12-16T11:20:12;0.40;99.90
15107;DHT22;7654;45.308;-75.096;2022-12-16T11:23:15;0.40;99.90
15107;DHT22;7654;45.308;-75.096;2022-12-16T11:26:05;0.40;99.90
15107;DHT22;7654;45.308;-75.096;2022-12-16T11:29:12;0.40;99.90
15107;DHT22;7654;45.308;-75.096;2022-12-16T11:32:02;0.40;99.90
15107;DHT22;7654;45.308;-75.096;2022-12-16T11:34:52;0.40;99.90
15107;DHT22;7654;45.308;-75.096;2022-12-16T11:37:42;0.30;99.90
15107;DHT22;7654;45.308;-75.096;2022-12-16T11:40:43;0.30;99.90
15107;DHT22;7654;45.308;-75.096;2022-12-16T11:43:32;0.30;99.90
15107;DHT22;7654;45.308;-75.096;2022-12-16T11:46:24;0.30;99.90
15107;DHT22;7654;45.308;-75.096;2022-12-16T11:49:18;0.30;99.90
15107;DHT22;7654;45.308;-75.096;2022-12-16T11:52:09;0.30;99.90
15107;DHT22;7654;45.308;-75.096;2022-12-16T11:55:16;0.30;99.90
15107;DHT22;7654;45.308;-75.096;2022-12-16T11:58:30;0.30;99.90
15107;DHT22;7654;45.308;-75.096;2022-12-16T12:01:26;0.30;99.90
15107;DHT22;7654;45.308;-75.096;2022-12-16T12:04:14;0.20;99.90
15107;DHT22;7654;45.308;-75.096;2022-12-16T12:07:24;0.30;99.90
15107;DHT22;7654;45.308;-75.096;2022-12-16T12:10:32;0.20;99.90
15107;DHT22;7654;45.308;-75.096;2022-12-16T12:13:45;0.30;99.90
15107;DHT22;7654;45.308;-75.096;2022-12-16T12:16:45;0.20;99.90
15107;DHT22;7654;45.308;-75.096;2022-12-16T12:19:43;0.20;99.90
15107;DHT22;7654;45.308;-75.096;2022-12-16T12:22:36;0.20;99.90
15107;DHT22;7654;45.308;-75.096;2022-12-16T12:25:29;0.20;99.90
15107;DHT22;7654;45.308;-75.096;2022-12-16T12:28:27;0.20;99.90
15107;DHT22;7654;45.308;-75.096;2022-12-16T12:31:28;0.20;99.90
15107;DHT22;7654;45.308;-75.096;2022-12-16T12:34:24;0.20;99.90
15107;DHT22;7654;45.308;-75.096;2022-12-16T12:37:20;0.20;99.90
15107;DHT22;7654;45.308;-75.096;2022-12-16T12:40:20;0.10;99.90
15107;DHT22;7654;45.308;-75.096;2022-12-16T12:43:16;0.20;99.90
15107;DHT22;7654;45.308;-75.096;2022-12-16T12:46:21;0.20;99.90
15107;DHT22;7654;45.308;-75.096;2022-12-16T12:49:18;0.10;99.90
15107;DHT22;7654;45.308;-75.096;2022-12-16T12:52:16;0.10;99.90
15107;DHT22;7654;45.308;-75.096;2022-12-16T12:55:11;0.20;99.90
15107;DHT22;7654;45.308;-75.096;2022-12-16T12:58:02;0.20;99.90
15107;DHT22;7654;45.308;-75.096;2022-12-16T13:00:51;0.20;99.90
15107;DHT22;7654;45.308;-75.096;2022-12-16T13:03:43;0.20;99.90
15107;DHT22;7654;45.308;-75.096;2022-12-16T13:06:36;0.20;99.90
15107;DHT22;7654;45.308;-75.096;2022-12-16T13:09:29;0.20;99.90
15107;DHT22;7654;45.308;-75.096;2022-12-16T13:12:28;0.30;99.90
15107;DHT22;7654;45.308;-75.096;2022-12-16T13:15:35;0.30;99.90
15107;DHT22;7654;45.308;-75.096;2022-12-16T13:18:30;0.30;99.90
15107;DHT22;7654;45.308;-75.096;2022-12-16T13:21:50;0.40;99.90
15107;DHT22;7654;45.308;-75.096;2022-12-16T13:24:47;0.40;99.90
15107;DHT22;7654;45.308;-75.096;2022-12-16T13:27:52;0.40;99.90
15107;DHT22;7654;45.308;-75.096;2022-12-16T13:30:40;0.40;99.90
15107;DHT22;7654;45.308;-75.096;2022-12-16T13:33:52;0.40;99.90
15107;DHT22;7654;45.308;-75.096;2022-12-16T13:36:39;0.50;99.90
15107;DHT22;7654;45.308;-75.096;2022-12-16T13:39:28;0.50;99.90
15107;DHT22;7654;45.308;-75.096;2022-12-16T13:45:37;0.50;99.90
15107;DHT22;7654;45.308;-75.096;2022-12-16T13:48:34;0.60;99.90
15107;DHT22;7654;45.308;-75.096;2022-12-16T13:51:55;0.60;99.90
15107;DHT22;7654;45.308;-75.096;2022-12-16T13:55:10;0.60;99.90
15107;DHT22;7654;45.308;-75.096;2022-12-16T13:58:03;0.60;99.90
15107;DHT22;7654;45.308;-75.096;2022-12-16T14:01:04;0.60;99.90
15107;DHT22;7654;45.308;-75.096;2022-12-16T14:03:55;0.70;99.90
15107;DHT22;7654;45.308;-75.096;2022-12-16T14:06:44;0.70;99.90
15107;DHT22;7654;45.308;-75.096;2022-12-16T14:09:34;0.70;99.90
15107;DHT22;7654;45.308;-75.096;2022-12-16T14:13:00;0.70;99.90
15107;DHT22;7654;45.308;-75.096;2022-12-16T14:15:57;0.80;99.90
15107;DHT22;7654;45.308;-75.096;2022-12-16T14:18:57;0.80;99.90
15107;DHT22;7654;45.308;-75.096;2022-12-16T14:21:51;0.90;99.90
15107;DHT22;7654;45.308;-75.096;2022-12-16T14:24:42;0.90;99.90
15107;DHT22;7654;45.308;-75.096;2022-12-16T14:27:32;0.90;99.90
15107;DHT22;7654;45.308;-75.096;2022-12-16T14:30:23;0.90;99.90
15107;DHT22;7654;45.308;-75.096;2022-12-16T14:33:22;1.00;99.90
15107;DHT22;7654;45.308;-75.096;2022-12-16T14:36:23;1.00;99.90
15107;DHT22;7654;45.308;-75.096;2022-12-16T14:39:11;1.00;99.90
15107;DHT22;7654;45.308;-75.096;2022-12-16T14:41:59;1.00;99.90
15107;DHT22;7654;45.308;-75.096;2022-12-16T14:44:47;1.00;99.90
15107;DHT22;7654;45.308;-75.096;2022-12-16T14:47:39;1.00;99.90
15107;DHT22;7654;45.308;-75.096;2022-12-16T14:50:29;1.10;99.90
15107;DHT22;7654;45.308;-75.096;2022-12-16T14:53:18;1.10;99.90
15107;DHT22;7654;45.308;-75.096;2022-12-16T14:56:29;1.10;99.90
15107;DHT22;7654;45.308;-75.096;2022-12-16T14:59:17;1.00;99.90
15107;DHT22;7654;45.308;-75.096;2022-12-16T15:02:14;1.10;99.90
15107;DHT22;7654;45.308;-75.096;2022-12-16T15:05:06;1.00;99.90
15107;DHT22;7654;45.308;-75.096;2022-12-16T15:07:53;1.10;99.90
15107;DHT22;7654;45.308;-75.096;2022-12-16T15:10:41;1.00;99.90
15107;DHT22;7654;45.308;-75.096;2022-12-16T15:13:27;1.00;99.90
15107;DHT22;7654;45.308;-75.096;2022-12-16T15:16:19;1.00;99.90
15107;DHT22;7654;45.308;-75.096;2022-12-16T15:19:14;1.00;99.90
15107;DHT22;7654;45.308;-75.096;2022-12-16T15:22:08;1.00;99.90
15107;DHT22;7654;45.308;-75.096;2022-12-16T15:24:56;1.10;99.90
15107;DHT22;7654;45.308;-75.096;2022-12-16T15:27:52;1.20;99.90
15107;DHT22;7654;45.308;-75.096;2022-12-16T15:30:41;1.20;99.90
15107;DHT22;7654;45.308;-75.096;2022-12-16T15:33:30;1.30;99.90
15107;DHT22;7654;45.308;-75.096;2022-12-16T15:36:24;1.40;99.90
15107;DHT22;7654;45.308;-75.096;2022-12-16T15:39:23;1.40;99.90
15107;DHT22;7654;45.308;-75.096;2022-12-16T15:42:19;1.40;99.90
15107;DHT22;7654;45.308;-75.096;2022-12-16T15:45:16;1.50;99.90
15107;DHT22;7654;45.308;-75.096;2022-12-16T15:48:11;1.40;99.90
15107;DHT22;7654;45.308;-75.096;2022-12-16T15:50:58;1.40;99.90
15107;DHT22;7654;45.308;-75.096;2022-12-16T15:53:45;1.40;99.90
15107;DHT22;7654;45.308;-75.096;2022-12-16T15:56:48;1.40;99.90
15107;DHT22;7654;45.308;-75.096;2022-12-16T15:59:55;1.50;99.90
15107;DHT22;7654;45.308;-75.096;2022-12-16T16:02:48;1.60;99.90
15107;DHT22;7654;45.308;-75.096;2022-12-16T16:05:36;1.60;99.90
15107;DHT22;7654;45.308;-75.096;2022-12-16T16:08:23;1.70;99.90
15107;DHT22;7654;45.308;-75.096;2022-12-16T16:11:10;1.80;99.90
15107;DHT22;7654;45.308;-75.096;2022-12-16T16:13:59;1.80;99.90
15107;DHT22;7654;45.308;-75.096;2022-12-16T16:16:46;2.00;99.90
15107;DHT22;7654;45.308;-75.096;2022-12-16T16:19:33;2.10;99.90
15107;DHT22;7654;45.308;-75.096;2022-12-16T16:22:25;1.90;99.90
15107;DHT22;7654;45.308;-75.096;2022-12-16T16:25:12;2.00;99.90
15107;DHT22;7654;45.308;-75.096;2022-12-16T16:27:59;2.00;99.90
15107;DHT22;7654;45.308;-75.096;2022-12-16T16:30:51;1.90;99.90
15107;DHT22;7654;45.308;-75.096;2022-12-16T16:33:57;1.80;99.90
15107;DHT22;7654;45.308;-75.096;2022-12-16T16:36:53;1.70;99.90
15107;DHT22;7654;45.308;-75.096;2022-12-16T16:39:42;1.70;99.90
15107;DHT22;7654;45.308;-75.096;2022-12-16T16:42:35;1.50;99.90
15107;DHT22;7654;45.308;-75.096;2022-12-16T16:45:30;1.50;99.90
15107;DHT22;7654;45.308;-75.096;2022-12-16T16:48:24;1.60;99.90
15107;DHT22;7654;45.308;-75.096;2022-12-16T16:51:17;1.50;99.90
15107;DHT22;7654;45.308;-75.096;2022-12-16T16:54:06;1.50;99.90
15107;DHT22;7654;45.308;-75.096;2022-12-16T16:57:07;1.50;99.90
15107;DHT22;7654;45.308;-75.096;2022-12-16T16:59:55;1.30;99.90
15107;DHT22;7654;45.308;-75.096;2022-12-16T17:02:55;1.50;99.90
15107;DHT22;7654;45.308;-75.096;2022-12-16T17:05:48;1.50;99.90
15107;DHT22;7654;45.308;-75.096;2022-12-16T17:08:36;1.60;99.90
15107;DHT22;7654;45.308;-75.096;2022-12-16T17:11:23;1.60;99.90
15107;DHT22;7654;45.308;-75.096;2022-12-16T17:14:12;1.50;99.90
15107;DHT22;7654;45.308;-75.096;2022-12-16T17:16:56;1.40;99.90
15107;DHT22;7654;45.308;-75.096;2022-12-16T17:19:44;1.10;99.90
15107;DHT22;7654;45.308;-75.096;2022-12-16T17:23:11;1.00;99.90
15107;DHT22;7654;45.308;-75.096;2022-12-16T17:26:03;1.00;99.90
15107;DHT22;7654;45.308;-75.096;2022-12-16T17:29:02;1.10;99.90
15107;DHT22;7654;45.308;-75.096;2022-12-16T17:31:52;1.20;99.90
15107;DHT22;7654;45.308;-75.096;2022-12-16T17:34:40;1.20;99.90
15107;DHT22;7654;45.308;-75.096;2022-12-16T17:37:30;1.30;99.90
15107;DHT22;7654;45.308;-75.096;2022-12-16T17:40:20;1.40;99.90
15107;DHT22;7654;45.308;-75.096;2022-12-16T17:43:07;1.40;99.90
15107;DHT22;7654;45.308;-75.096;2022-12-16T17:45:56;1.50;99.90
15107;DHT22;7654;45.308;-75.096;2022-12-16T17:48:43;1.60;99.90
15107;DHT22;7654;45.308;-75.096;2022-12-16T17:51:29;1.60;99.90
15107;DHT22;7654;45.308;-75.096;2022-12-16T17:54:17;1.40;99.90
15107;DHT22;7654;45.308;-75.096;2022-12-16T17:57:05;1.30;99.90
15107;DHT22;7654;45.308;-75.096;2022-12-16T17:59:52;1.20;99.90
15107;DHT22;7654;45.308;-75.096;2022-12-16T18:02:36;1.20;99.90